Date,TemperatureHighF,TemperatureAvgF,TemperatureLowF,DewpointHighF,DewpointAvgF,DewpointLowF,HumidityHigh,HumidityAvg,HumidityLow,PressureMaxIn,PressureMinIn,WindSpeedMaxMPH,WindSpeedAvgMPH,GustSpeedMaxMPH,PrecipitationSumIn
2013-1-1,81.7,66.8,57.0,72.4,60.9,54.6,100,84,48,30.26,30.08,10,1,10,0.00
2013-1-2,81.1,70.4,63.1,72.9,67.0,59.2,100,90,50,30.11,29.99,10,2,10,0.00
2013-1-3,77.5,67.9,63.0,72.3,67.1,63.0,100,98,67,30.20,30.05,14,3,14,0.00
2013-1-4,68.0,65.9,63.5,68.0,65.9,63.5,100,100,100,30.29,30.14,14,6,14,0.00
2013-1-5,77.7,69.1,62.8,71.2,64.5,55.0,100,87,49,30.32,30.23,17,4,17,0.00
2013-1-6,75.7,70.5,66.2,74.5,70.0,66.2,100,98,84,30.23,30.08,14,2,14,0.00
2013-1-7,75.4,69.6,64.9,71.3,65.8,57.1,100,89,54,30.23,30.14,15,6,15,0.00
2013-1-8,77.4,73.0,69.3,75.3,72.3,69.3,100,98,82,30.26,30.14,11,3,11,0.00
2013-1-9,81.5,74.3,70.3,75.6,73.1,69.0,100,96,67,30.35,30.23,13,4,13,0.00
2013-1-10,79.2,73.9,71.1,74.4,71.8,68.4,100,93,74,30.37,30.26,11,4,11,0.00
2013-1-11,80.6,73.5,68.7,74.5,70.2,63.1,100,91,59,30.32,30.20,13,3,13,0.00
2013-1-12,80.2,72.5,65.7,75.2,68.6,61.5,100,89,56,30.23,30.14,9,2,9,0.00
2013-1-13,81.9,73.5,70.2,72.4,67.9,56.7,100,85,45,30.20,30.08,12,4,12,0.00
2013-1-14,79.9,72.6,66.0,72.7,68.4,60.2,100,88,53,30.23,30.17,11,3,11,0.00
2013-1-15,80.2,73.1,69.1,74.5,68.9,60.4,100,88,55,30.20,30.08,11,3,11,0.00
2013-1-16,84.7,72.4,65.5,74.8,68.4,57.3,100,89,45,30.14,30.02,10,2,10,0.00
2013-1-17,87.3,71.9,60.1,73.4,61.5,43.4,100,73,37,30.11,29.90,22,6,22,0.00
2013-1-18,71.2,61.9,50.9,65.7,49.4,36.0,100,64,48,30.29,30.11,23,8,23,0.00
2013-1-19,73.2,69.6,66.7,70.3,65.5,57.5,100,87,70,30.32,30.14,19,7,19,0.00
2013-1-20,74.3,68.4,65.3,71.1,67.4,65.3,100,97,78,30.20,30.08,10,1,10,0.00
2013-1-21,77.5,69.8,66.4,72.0,64.2,57.4,100,84,57,30.11,29.99,10,1,10,0.00
2013-1-22,71.1,64.4,58.3,63.2,47.1,40.3,89,54,37,30.32,30.05,17,4,17,0.00
2013-1-23,70.9,61.9,56.5,47.7,43.1,36.3,62,51,37,30.40,30.29,13,3,13,0.00
2013-1-24,74.5,62.3,54.0,51.9,45.7,40.1,73,56,34,30.37,30.26,8,1,8,0.00
2013-1-25,76.1,65.2,58.1,64.8,54.3,47.2,100,71,37,30.35,30.20,9,1,9,0.00
2013-1-26,74.7,64.8,56.5,57.9,52.6,46.8,92,66,40,30.32,30.20,9,1,9,0.00
2013-1-27,75.9,68.0,59.2,71.0,63.0,54.2,100,86,48,30.37,30.26,15,3,15,0.00
2013-1-28,74.7,71.0,69.1,71.8,69.2,66.8,100,94,79,30.40,30.29,15,6,15,0.00
2013-1-29,77.7,71.7,65.5,74.7,70.4,65.5,100,96,80,30.29,30.14,13,3,13,0.00
2013-1-30,79.5,73.8,68.5,71.4,63.7,55.2,100,74,46,30.14,29.90,19,4,19,0.00
2013-1-31,76.6,66.0,56.8,70.9,48.9,30.5,100,60,28,30.26,29.90,17,5,17,0.00
2013-2-1,69.4,59.5,53.1,44.5,36.3,28.4,68,43,30,30.37,30.23,17,5,17,0.00
2013-2-2,71.8,62.7,54.0,51.6,45.1,40.0,72,54,37,30.35,30.17,10,3,10,0.00
2013-2-3,70.3,60.5,55.6,51.7,44.6,34.8,72,57,32,30.23,30.11,13,4,13,0.00
2013-2-4,66.6,62.4,57.0,46.3,45.8,44.2,66,55,46,30.08,30.05,5,0,5,0.00
2013-2-5,77.0,64.4,53.2,55.6,50.1,44.1,99,62,36,30.14,30.02,9,2,9,0.00
2013-2-6,75.9,68.6,60.6,69.9,64.8,53.1,100,88,68,30.14,30.05,11,3,11,0.00
2013-2-7,78.1,72.2,65.3,72.9,66.4,59.2,100,84,57,30.11,29.90,15,4,15,0.00
2013-2-8,84.7,71.2,66.4,73.8,64.0,52.8,100,81,34,30.08,29.87,12,3,12,0.00
2013-2-9,75.2,68.6,61.5,66.6,58.7,52.3,100,74,47,30.26,30.08,17,4,17,0.00
2013-2-10,75.2,70.5,67.1,59.3,54.1,49.0,68,56,47,30.32,30.23,17,8,17,0.00
2013-2-11,78.4,73.1,69.8,72.5,63.9,58.6,100,74,54,30.26,30.11,15,6,15,0.00
2013-2-12,85.8,74.3,68.2,74.9,69.2,56.2,100,87,38,30.14,29.96,14,4,14,0.00
2013-2-13,88.5,76.4,68.7,74.7,65.3,55.7,100,73,34,29.99,29.81,17,5,17,0.00
2013-2-14,73.0,67.0,63.0,70.3,63.3,56.1,100,89,66,30.05,29.93,15,2,15,0.00
2013-2-15,75.9,65.4,60.6,66.2,61.1,52.7,100,87,48,30.08,29.96,9,1,9,0.00
2013-2-16,76.3,64.9,55.0,63.7,46.9,28.7,98,57,28,30.11,29.87,23,4,23,0.00
2013-2-17,60.3,51.3,44.4,37.1,23.1,17.1,51,33,29,30.37,30.11,22,6,22,0.00
2013-2-18,67.1,58.0,46.6,50.1,36.4,21.7,61,45,37,30.40,30.26,14,4,14,0.00
2013-2-19,82.2,67.7,55.6,65.6,51.6,44.8,99,60,35,30.26,30.08,16,3,16,0.00
2013-2-20,72.9,67.7,61.9,67.6,58.1,51.2,100,73,56,30.17,30.05,11,4,11,0.00
2013-2-21,78.1,71.9,66.4,73.4,68.1,60.5,100,89,57,30.14,30.02,10,4,10,0.00
2013-2-22,78.4,72.6,65.8,75.6,71.9,65.7,100,98,86,30.11,29.99,14,4,14,0.00
2013-2-23,89.8,76.8,70.0,74.7,63.8,39.2,100,73,18,30.02,29.84,17,3,17,0.00
2013-2-24,82.0,73.7,70.2,74.7,70.7,63.5,100,92,56,29.93,29.87,13,2,13,0.00
2013-2-25,84.0,74.3,68.5,77.8,70.6,55.5,100,91,39,29.90,29.75,13,2,13,0.00
2013-2-26,83.1,76.0,69.8,74.8,68.8,58.0,100,81,44,29.87,29.72,17,5,17,0.00
2013-2-27,79.3,69.9,65.1,68.1,60.0,48.6,96,73,37,29.96,29.87,13,4,13,0.00
2013-2-28,74.8,65.9,58.5,48.6,44.2,30.2,66,47,31,30.02,29.87,20,9,20,0.00
2013-3-1,67.8,61.8,57.0,47.0,39.3,32.6,66,45,30,29.99,29.90,20,11,20,0.00
2013-3-2,65.5,56.9,51.4,39.1,32.6,26.7,51,40,31,30.05,29.93,27,12,27,0.00
2013-3-3,65.1,53.0,44.1,34.1,29.6,25.6,55,41,30,30.20,29.99,29,13,29,0.00
2013-3-4,64.4,54.8,44.6,42.2,32.9,24.6,59,44,31,30.26,30.17,20,9,20,0.00
2013-3-5,71.8,62.7,50.4,63.8,48.0,39.0,87,60,38,30.23,30.05,21,9,21,0.00
2013-3-6,77.0,65.3,55.0,64.8,45.4,30.0,100,55,28,30.14,29.93,31,12,31,0.00
2013-3-7,72.0,58.4,48.7,47.6,40.2,30.6,70,51,37,30.23,30.11,20,10,20,0.00
2013-3-8,67.8,61.5,53.6,57.8,48.1,41.8,94,63,41,30.26,30.17,18,8,18,0.00
2013-3-9,72.9,65.5,57.6,53.8,48.5,44.9,70,55,39,30.26,30.14,16,9,16,0.00
2013-3-10,74.5,69.0,66.0,54.8,51.9,47.0,63,55,47,30.20,30.14,19,11,19,0.00
2013-3-11,75.4,70.3,66.7,69.6,60.7,52.3,100,73,52,30.14,29.96,20,11,20,0.00
2013-3-12,74.8,70.2,65.5,74.7,68.3,63.1,100,94,83,30.02,29.90,20,10,20,0.00
2013-3-13,72.7,64.7,58.1,63.4,49.6,36.8,100,62,32,30.17,29.99,20,10,20,0.00
2013-3-14,66.2,60.2,54.9,48.5,40.2,34.1,64,48,38,30.29,30.14,23,11,23,0.00
2013-3-15,67.6,60.3,52.2,45.0,40.7,35.4,65,49,37,30.32,30.20,16,9,16,0.00
2013-3-16,72.0,64.1,54.7,55.7,48.4,40.5,72,58,37,30.23,30.08,20,9,20,0.00
2013-3-17,73.9,66.4,57.0,67.0,54.2,46.3,92,66,47,30.20,30.06,18,9,18,0.00
2013-3-18,77.7,71.2,66.4,73.2,66.9,56.5,100,87,59,30.09,29.94,20,9,20,0.00
2013-3-19,77.7,71.3,66.2,72.9,66.7,56.3,100,88,51,30.03,29.91,16,8,16,0.00
2013-3-20,75.7,71.5,66.6,74.1,68.3,56.6,100,91,58,30.00,29.80,21,8,21,0.08
2013-3-21,72.1,64.1,58.5,62.9,46.2,32.5,98,57,29,29.97,29.83,20,10,20,0.00
2013-3-22,73.9,64.8,54.9,68.7,52.9,41.7,100,68,40,30.06,29.91,17,9,17,0.00
2013-3-23,86.0,75.1,68.5,78.3,69.6,59.4,100,86,45,30.00,29.77,23,10,23,0.00
2013-3-24,89.2,75.1,70.9,76.8,70.4,58.0,100,88,40,29.88,29.62,33,10,33,0.20
2013-3-25,79.9,71.4,61.3,72.2,52.2,32.9,100,59,27,30.03,29.71,24,11,24,0.00
2013-3-26,70.5,60.4,53.4,37.1,31.0,25.1,43,33,27,30.27,30.03,25,13,25,0.00
2013-3-27,67.5,56.8,50.0,39.4,32.9,28.2,55,41,30,30.36,30.24,21,10,21,0.00
2013-3-28,67.8,60.0,51.4,44.2,39.5,31.9,67,48,31,30.36,30.24,16,9,16,0.00
2013-3-29,72.9,64.1,53.4,54.3,43.3,38.6,80,49,31,30.39,30.27,16,8,16,0.00
2013-3-30,73.6,66.8,56.7,57.2,48.4,39.9,78,53,39,30.33,30.18,22,10,22,0.00
2013-3-31,77.7,70.3,63.7,71.6,56.8,47.7,100,64,36,30.24,30.03,21,10,21,0.00
2013-4-1,88.2,75.4,67.1,74.4,63.7,53.9,100,72,33,30.06,29.91,25,10,25,0.00
2013-4-2,80.4,73.0,67.3,71.6,64.1,55.7,100,76,47,30.12,30.00,16,9,16,0.00
2013-4-3,79.7,74.1,70.7,75.8,72.5,69.9,100,95,77,30.12,30.00,18,11,18,0.00
2013-4-4,75.4,72.6,69.6,75.4,71.8,65.3,100,97,82,30.09,29.88,25,10,25,0.12
2013-4-5,77.4,69.7,64.2,74.9,68.9,64.2,100,97,74,29.97,29.80,25,10,25,0.08
2013-4-6,77.4,69.7,61.3,64.4,59.7,53.5,100,73,47,30.15,29.97,23,11,23,0.00
2013-4-7,77.9,73.1,70.0,64.9,56.6,53.6,79,57,44,30.21,30.09,18,11,18,0.00
2013-4-8,79.3,73.2,65.1,75.0,66.5,55.8,100,82,48,30.18,30.09,17,8,17,0.00
2013-4-9,79.5,74.4,71.8,73.2,66.9,58.1,100,79,56,30.24,30.09,16,10,16,0.00
2013-4-10,80.4,75.4,71.8,77.6,73.0,64.4,100,93,72,30.15,30.03,17,10,17,0.00
2013-4-11,81.0,76.2,72.9,77.6,74.7,72.9,100,95,83,30.03,29.88,22,13,22,0.00
2013-4-12,88.5,80.6,74.7,78.4,70.1,61.7,100,74,43,29.91,29.83,20,9,20,0.00
2013-4-13,81.0,76.3,73.0,78.8,70.4,60.6,100,84,57,30.00,29.88,16,8,22,0.00
2013-4-14,81.1,75.8,70.3,79.9,75.6,70.2,100,100,94,29.97,29.83,25,10,25,4.06
2013-4-15,81.0,75.4,69.8,76.1,69.4,59.4,100,84,51,30.06,29.91,15,8,15,0.00
2013-4-16,83.1,77.6,74.1,78.3,72.8,64.6,100,87,55,30.15,30.03,18,9,18,0.00
2013-4-17,83.3,77.5,73.0,75.6,68.5,61.4,100,76,49,30.12,30.03,16,9,16,0.00
2013-4-18,82.4,77.7,73.8,78.4,72.5,64.5,100,85,60,30.06,29.97,18,11,18,0.00
2013-4-19,84.0,79.1,73.0,79.5,76.4,68.1,100,92,67,30.00,29.88,27,12,27,0.20
2013-4-20,76.1,72.4,68.2,75.9,71.1,63.9,100,96,76,30.09,29.94,20,8,20,0.00
2013-4-21,79.2,73.7,68.2,78.4,73.5,68.2,100,99,90,30.09,29.97,20,10,20,0.00
2013-4-22,81.1,74.2,71.2,77.2,70.0,59.4,100,88,52,30.03,29.94,20,9,20,0.12
2013-4-23,81.7,75.3,70.9,73.4,63.9,56.7,100,71,45,31.01,29.94,20,10,20,0.00
2013-4-24,80.2,75.3,70.7,68.8,57.7,54.9,92,55,45,30.15,17.72,16,10,16,0.00
2013-4-25,81.0,76.1,70.5,68.3,61.3,56.6,80,61,47,30.15,30.15,16,8,16,0.00
2013-4-26,74.8,73.5,71.6,64.8,60.6,58.8,79,64,60,30.15,30.15,9,3,9,0.00
2013-4-27,78.3,74.6,72.5,76.5,71.2,65.3,100,89,75,30.24,30.15,12,5,12,0.04
2013-4-28,79.3,75.6,73.4,65.9,61.4,56.5,75,62,49,30.18,30.03,14,7,14,0.00
2013-4-29,82.4,77.2,74.1,73.9,64.8,59.2,89,66,48,30.06,29.94,15,7,15,0.00
2013-4-30,81.5,76.3,72.9,76.8,74.2,70.4,100,93,70,30.03,29.94,13,4,13,0.00
2013-5-1,79.3,74.9,69.4,77.1,74.2,62.9,100,98,72,30.03,29.94,11,3,11,1.26
2013-5-2,77.2,73.4,68.5,77.0,71.4,62.2,100,94,68,29.97,29.83,20,6,20,0.98
2013-5-3,86.7,76.5,70.7,78.1,66.2,51.6,98,75,31,29.85,29.62,17,4,17,1.93
2013-5-4,85.5,75.6,69.8,73.2,66.0,52.2,94,76,33,29.80,29.68,17,4,17,0.98
2013-5-5,84.6,75.3,68.9,73.2,44.9,22.8,94,45,11,29.94,29.74,21,6,21,0.98
2013-5-6,84.7,74.4,66.9,54.1,41.8,28.8,56,34,14,30.00,29.88,17,6,17,0.98
2013-5-7,85.1,73.4,63.7,48.4,40.5,31.8,52,33,16,30.06,29.97,15,5,15,0.98
2013-5-8,86.0,74.4,66.4,56.8,49.5,34.1,58,44,16,30.15,30.03,13,4,13,0.98
2013-5-9,79.5,74.5,68.4,72.0,57.9,47.3,91,58,34,30.18,30.09,11,4,11,0.98
2013-5-10,83.3,77.1,70.9,75.8,71.6,64.3,96,84,66,30.18,30.03,13,4,13,0.98
2013-5-11,88.7,77.7,73.4,78.2,70.9,55.3,93,81,33,30.09,29.97,15,3,15,0.98
2013-5-12,91.8,78.3,72.7,80.4,70.5,54.5,95,80,30,30.06,29.94,13,3,13,0.98
2013-5-13,82.9,75.5,71.8,69.5,55.7,38.7,88,55,28,30.15,30.00,15,5,15,0.98
2013-5-14,82.8,75.3,68.9,44.8,38.1,31.4,36,26,20,30.24,30.15,11,4,11,0.98
2013-5-15,80.4,75.6,70.2,54.3,41.3,35.5,50,30,21,30.27,30.15,10,4,11,0.98
2013-5-16,81.1,75.7,70.9,54.4,50.0,44.9,51,41,30,30.18,30.06,15,5,15,0.98
2013-5-17,83.7,77.6,71.1,73.2,60.1,52.2,87,57,38,30.12,30.06,15,5,15,0.98
2013-5-18,83.1,78.3,72.0,75.1,71.7,68.2,95,81,64,30.15,30.06,14,5,14,0.00
2013-5-19,80.1,77.2,75.0,76.3,72.2,69.6,95,85,73,30.12,30.03,13,4,13,0.55
2013-5-20,81.1,77.2,74.7,75.6,72.3,60.5,97,86,53,30.12,30.03,13,4,13,0.00
2013-5-21,79.0,75.3,69.6,74.7,72.6,68.8,98,91,79,30.06,29.97,18,4,18,2.40
2013-5-22,81.9,77.3,72.3,76.0,73.1,69.9,95,87,73,30.00,29.91,12,3,12,2.40
2013-5-23,87.4,77.4,72.5,79.2,73.0,59.2,96,88,40,30.00,29.91,10,2,10,0.00
2013-5-24,90.3,83.3,78.3,83.1,77.1,52.2,100,85,28,30.12,30.00,10,4,10,0.00
2013-5-25,84.7,79.7,74.8,79.0,68.3,58.3,100,70,44,30.24,30.09,16,6,16,0.00
2013-5-26,82.0,76.8,72.1,71.8,61.4,55.4,86,60,42,30.27,30.18,13,5,13,0.00
2013-5-27,82.0,77.7,74.1,78.1,69.4,61.3,100,77,60,30.24,30.15,17,7,17,0.00
2013-5-28,83.8,78.8,75.7,82.7,78.7,75.8,100,100,92,30.18,30.12,17,9,17,0.00
2013-5-29,81.5,78.2,73.2,81.5,78.3,73.1,100,100,100,30.18,30.09,17,8,17,0.20
2013-5-30,82.8,78.3,73.4,78.3,73.9,67.0,100,87,66,30.18,30.06,22,9,22,0.28
2013-5-31,83.7,79.5,77.2,75.8,72.8,66.8,91,80,63,30.15,30.06,19,9,19,0.12
2013-6-1,83.8,79.1,76.1,78.5,76.2,73.0,98,91,77,30.09,30.00,16,7,16,0.67
2013-6-2,85.1,80.4,75.9,79.6,76.4,73.6,97,88,72,30.03,29.91,13,4,13,0.12
2013-6-3,85.1,80.0,75.7,80.1,76.1,70.1,95,88,64,30.03,29.91,15,2,15,0.12
2013-6-4,84.4,79.8,75.7,78.8,70.6,54.8,93,77,38,30.06,29.94,11,2,11,0.12
2013-6-5,82.8,80.2,77.4,77.5,75.3,72.1,92,85,73,30.03,29.94,14,7,14,0.00
2013-6-6,79.7,76.7,73.4,78.1,75.0,71.4,98,94,87,29.94,29.74,19,6,19,2.17
2013-6-7,91.2,81.0,74.5,78.8,70.5,57.5,97,75,34,29.97,29.80,15,3,15,1.14
2013-6-8,83.3,78.4,74.1,78.7,74.4,67.3,96,88,61,30.12,29.97,16,4,16,1.14
2013-6-9,84.7,78.5,73.6,77.9,75.4,73.0,98,91,70,30.15,30.06,13,3,13,1.14
2013-6-10,84.9,80.0,76.1,79.0,77.1,75.2,98,91,76,30.12,30.03,12,3,12,1.14
2013-6-11,86.2,80.6,76.8,81.0,77.5,68.3,98,91,72,30.12,30.03,11,2,11,1.14
2013-6-12,87.1,81.4,75.0,82.9,75.5,66.6,96,83,62,30.09,30.03,13,3,13,1.14
2013-6-13,88.5,82.4,77.0,76.2,70.9,60.0,83,69,39,30.06,29.91,15,4,15,0.00
2013-6-14,93.9,81.9,76.6,82.7,74.8,59.3,100,83,32,29.94,29.88,15,6,15,0.00
2013-6-15,87.1,82.8,79.5,78.6,74.1,65.8,96,76,51,30.09,30.03,13,6,13,0.00
2013-6-16,86.7,81.8,78.3,81.3,79.5,78.0,100,93,80,30.12,30.06,12,5,12,0.00
2013-6-17,88.2,82.2,79.3,81.6,79.6,72.0,100,92,61,30.09,30.00,15,5,15,0.00
2013-6-18,90.7,82.9,77.9,81.2,76.6,62.0,98,83,39,30.06,29.94,15,5,15,0.00
2013-6-19,88.7,81.7,76.3,81.9,72.3,59.1,94,75,43,30.03,29.94,17,4,17,0.00
2013-6-20,88.0,80.3,77.0,82.4,73.7,62.4,99,81,53,30.09,30.00,8,2,8,0.04
2013-6-21,84.4,79.4,74.3,80.3,71.3,60.8,100,79,48,30.12,30.03,11,2,11,0.00
2013-6-22,87.8,81.5,75.7,80.5,75.0,63.9,100,83,47,30.12,30.06,9,3,9,0.00
2013-6-23,85.8,80.8,77.4,80.4,78.2,68.1,100,92,65,30.15,30.06,12,3,12,0.00
2013-6-24,86.9,82.3,78.4,80.0,76.0,66.2,100,83,52,30.18,30.09,10,4,10,0.00
2013-6-25,88.2,82.9,78.8,80.6,74.6,63.0,100,79,44,30.15,30.06,9,4,9,0.00
2013-6-26,86.0,81.4,78.4,82.4,79.7,76.5,100,95,78,30.09,30.00,11,3,11,0.20
2013-6-27,87.6,81.5,75.9,83.3,76.6,66.0,100,87,50,30.03,29.91,15,3,15,0.00
2013-6-28,95.4,81.6,76.5,81.7,73.5,56.8,100,81,30,29.97,29.83,28,3,28,1.18
2013-6-29,90.7,80.6,76.6,87.1,78.3,70.0,100,94,54,29.88,29.80,23,2,23,0.28
2013-6-30,90.5,78.8,74.1,82.6,73.5,60.4,100,86,37,29.94,29.85,17,4,17,0.67
2013-7-1,86.9,77.1,72.9,79.5,74.8,69.8,98,93,66,30.06,29.91,23,3,23,0.43
2013-7-2,81.5,75.9,73.0,77.7,74.2,72.4,98,95,78,30.15,30.00,15,3,15,0.12
2013-7-3,84.4,77.9,73.8,77.7,75.3,73.2,98,92,78,30.18,30.09,14,3,14,0.12
2013-7-4,85.5,79.1,74.3,77.7,74.9,70.2,98,87,75,30.18,30.12,15,4,15,0.12
2013-7-5,85.8,80.0,75.2,78.0,75.9,73.7,98,88,75,30.18,30.09,13,4,13,0.12
2013-7-6,86.2,80.9,76.3,77.9,75.4,69.0,96,84,61,30.18,30.09,14,5,14,0.12
2013-7-7,86.9,81.7,77.2,79.2,77.5,75.3,97,87,73,30.18,30.09,9,4,9,0.12
2013-7-8,87.8,82.8,78.8,80.1,74.9,63.3,96,79,47,30.21,30.12,9,3,9,0.12
2013-7-9,88.2,82.7,78.6,78.8,71.3,60.0,93,71,39,30.21,30.09,12,4,12,0.12
2013-7-10,87.1,82.1,78.1,77.1,69.6,58.8,92,69,42,30.12,30.00,14,4,14,0.12
2013-7-11,90.1,82.2,78.4,78.4,72.4,53.9,93,75,30,30.06,29.94,15,3,15,0.39
2013-7-12,87.8,80.2,75.6,80.4,74.5,65.3,96,84,51,29.97,29.88,13,2,13,0.43
2013-7-13,83.1,77.9,75.0,78.3,75.5,73.2,98,93,80,30.03,29.91,13,2,13,0.12
2013-7-14,83.5,76.7,73.4,77.6,74.3,71.2,98,92,81,30.12,30.00,15,3,15,0.12
2013-7-15,85.3,78.1,73.2,78.8,74.5,62.8,98,89,47,30.15,30.06,11,3,11,0.12
2013-7-16,86.7,79.7,77.0,78.2,74.6,61.4,95,86,47,30.18,30.12,15,4,15,0.20
2013-7-17,86.4,80.5,77.2,78.8,76.5,72.8,96,88,74,30.18,30.12,13,4,13,0.12
2013-7-18,84.9,79.6,75.2,77.6,75.5,72.7,96,88,68,30.15,30.09,12,3,12,0.12
2013-7-19,84.7,79.4,75.7,81.1,76.7,73.9,95,92,82,30.18,30.06,17,3,17,0.12
2013-7-20,87.1,79.8,76.1,82.2,77.0,70.4,97,91,70,30.15,30.03,10,1,11,0.12
2013-7-21,90.3,80.3,76.3,81.3,73.8,56.1,93,82,38,30.15,30.06,15,3,15,0.12
2013-7-22,93.4,81.0,75.9,80.8,72.8,55.1,94,79,29,30.15,30.09,13,3,14,0.12
2013-7-23,91.6,82.5,77.0,82.6,68.6,55.3,93,67,32,30.12,29.94,16,4,16,0.12
2013-7-24,90.9,81.1,77.5,81.3,74.0,59.2,93,81,37,30.03,29.88,23,4,23,0.79
2013-7-25,85.3,81.2,75.4,81.8,77.1,73.8,95,88,77,30.00,29.94,15,4,15,0.79
2013-7-26,86.5,81.2,77.2,81.6,77.0,72.9,95,87,65,30.03,29.94,10,2,10,0.79
2013-7-27,87.4,82.2,76.6,84.0,77.8,75.4,96,87,70,30.00,29.91,12,3,12,0.79
2013-7-28,88.2,82.7,78.4,81.3,69.8,50.8,94,69,31,30.09,29.94,13,3,13,0.79
2013-7-29,89.1,82.6,76.6,79.3,73.5,64.3,93,76,45,30.18,30.03,11,2,11,0.79
2013-7-30,89.2,83.2,78.3,82.4,77.3,67.4,97,83,53,30.21,30.12,10,2,10,0.79
2013-7-31,90.0,83.9,78.8,82.2,76.0,64.0,96,79,44,30.15,30.03,14,3,14,0.79
2013-8-1,89.6,83.3,78.3,80.4,71.5,56.1,92,71,33,30.09,29.97,11,3,11,0.79
2013-8-2,90.0,83.5,77.4,80.2,67.4,56.0,93,62,34,30.03,29.94,13,3,13,0.79
2013-8-3,89.2,80.2,75.9,81.2,74.3,60.3,94,84,39,30.12,30.00,18,5,20,0.71
2013-8-4,96.3,83.1,76.6,85.2,72.3,54.3,96,74,27,30.12,30.00,15,3,15,0.79
2013-8-5,92.3,83.9,78.8,84.5,75.1,62.3,94,77,38,30.03,29.94,15,4,15,0.79
2013-8-6,88.5,82.6,75.9,81.2,73.9,65.6,95,77,48,30.00,29.91,8,3,8,0.79
2013-8-7,88.7,83.8,79.3,81.1,76.6,61.0,94,81,40,30.00,29.91,11,4,11,0.79
2013-8-8,89.8,84.2,78.8,80.4,74.6,62.5,94,76,42,30.06,29.97,12,4,12,0.00
2013-8-9,89.6,84.3,81.1,80.0,72.1,53.0,91,69,34,30.09,30.00,15,5,15,0.00
2013-8-10,90.3,84.4,79.3,81.1,73.4,61.9,95,72,40,30.15,30.06,13,4,13,0.00
2013-8-11,90.1,84.7,80.4,81.1,71.4,56.8,95,68,34,30.18,30.09,10,4,10,0.00
2013-8-12,90.0,83.9,77.4,80.4,67.6,55.5,92,62,33,30.15,30.03,10,3,10,0.00
2013-8-13,90.5,84.6,78.3,81.7,71.9,60.4,91,69,38,30.09,29.91,14,4,14,0.00
2013-8-14,92.8,84.5,79.7,76.7,64.9,55.6,87,54,31,30.00,29.91,13,4,13,0.00
2013-8-15,88.2,83.6,78.4,79.2,67.0,58.4,93,60,38,30.00,29.94,17,4,17,0.79
2013-8-16,88.7,84.2,81.7,80.0,75.1,62.2,93,77,42,30.03,29.97,11,4,11,0.79
2013-8-17,88.5,83.5,80.2,82.4,80.1,79.0,96,90,74,30.09,30.00,11,3,11,0.79
2013-8-18,89.6,83.9,80.2,80.4,75.9,61.9,93,79,42,30.09,30.00,15,4,15,0.79
2013-8-19,89.6,84.6,80.6,80.5,75.4,63.8,96,77,45,30.09,29.97,10,4,10,0.79
2013-8-20,89.6,84.7,80.8,80.3,73.8,60.9,94,73,40,30.09,30.00,13,5,13,0.79
2013-8-21,89.2,83.9,81.0,82.2,79.0,74.7,93,86,71,30.09,30.03,13,5,13,0.79
2013-8-22,89.6,84.2,80.6,81.3,77.6,66.6,94,82,49,30.06,29.97,13,5,13,0.00
2013-8-23,88.7,84.4,81.3,84.8,76.4,54.9,100,80,35,30.00,29.91,14,4,14,0.00
2013-8-24,90.3,83.5,79.3,88.3,80.7,71.2,100,93,57,30.09,29.94,19,4,19,0.00
2013-8-25,87.8,81.8,77.2,86.6,81.5,73.2,100,99,74,31.01,30.09,15,2,15,0.75
2013-8-26,89.6,83.1,78.8,87.3,79.0,70.8,100,89,56,31.01,24.13,15,4,15,0.00
2013-8-27,89.6,83.7,80.1,81.5,68.1,55.8,100,63,33,30.06,17.72,12,5,12,0.00
2013-8-28,88.5,83.5,79.3,71.5,65.5,59.0,74,56,38,30.09,30.00,10,4,10,0.00
2013-8-29,88.2,83.4,78.6,84.2,73.7,65.6,100,74,50,30.03,29.94,10,3,10,0.00
2013-8-30,90.1,83.8,77.7,87.8,77.1,65.6,100,83,46,30.00,29.91,12,3,12,0.00
2013-8-31,90.5,82.9,77.0,86.4,76.7,62.5,100,84,42,30.00,29.88,18,4,18,0.04
2013-9-1,89.6,81.7,77.0,88.7,77.1,68.3,100,88,52,30.03,29.91,13,3,13,0.04
2013-9-2,89.6,81.0,75.7,87.8,77.9,71.3,100,92,58,30.03,29.94,19,2,19,0.87
2013-9-3,89.6,81.3,76.5,89.1,78.2,67.8,100,92,54,30.03,29.94,11,2,11,0.12
2013-9-4,87.8,83.0,79.0,84.4,80.0,71.3,100,92,58,30.09,30.00,8,1,8,0.00
2013-9-5,91.0,85.0,80.2,89.6,80.4,70.3,100,88,57,30.12,30.03,9,3,9,0.00
2013-9-6,90.1,83.2,79.2,87.8,81.0,70.1,100,94,54,30.06,29.97,16,2,16,0.12
2013-9-7,90.1,82.6,77.7,87.6,75.9,65.9,100,82,46,30.03,29.91,10,2,10,0.00
2013-9-8,90.5,84.3,79.0,86.2,78.8,68.6,100,85,52,29.97,29.88,12,3,12,0.00
2013-9-9,90.5,84.5,80.4,84.8,78.5,70.8,100,84,54,30.03,29.91,11,4,11,0.00
2013-9-10,90.1,84.3,80.6,82.8,75.5,62.9,100,77,44,30.12,30.00,17,6,17,0.00
2013-9-11,89.4,84.5,81.5,84.0,79.9,73.6,100,87,62,30.09,30.03,15,6,15,0.00
2013-9-12,86.9,81.6,77.9,83.8,73.9,54.1,100,81,34,30.03,29.91,9,2,9,0.00
2013-9-13,88.7,82.5,77.0,86.0,77.2,66.3,100,86,49,29.91,29.80,9,3,9,0.00
2013-9-14,89.8,83.9,79.3,87.1,73.6,60.8,100,75,40,29.97,29.83,11,3,11,0.12
2013-9-15,90.1,83.0,77.9,81.0,72.1,56.7,91,72,39,30.09,29.97,17,4,17,0.00
2013-9-16,89.2,82.7,77.9,76.0,64.3,52.8,87,56,30,30.09,30.00,15,5,15,0.00
2013-9-17,88.5,82.9,79.0,75.5,64.5,51.9,85,56,31,30.09,29.97,17,6,17,0.39
2013-9-18,85.6,82.0,78.6,79.5,73.1,63.6,93,75,55,30.03,29.97,15,7,15,0.31
2013-9-19,88.9,82.7,79.0,81.0,69.3,56.3,100,68,39,30.06,29.97,15,7,15,0.31
2013-9-20,88.3,83.0,79.5,64.1,56.9,48.7,56,42,26,30.03,29.91,13,5,13,0.31
2013-9-21,87.1,82.0,76.3,68.2,62.6,54.0,64,52,34,29.94,29.77,10,3,10,0.08
2013-9-22,94.1,83.1,77.4,85.8,70.8,52.7,100,72,26,29.85,29.74,17,3,17,0.08
2013-9-23,87.3,79.7,75.0,87.1,79.7,75.0,100,100,100,30.00,29.85,13,2,13,2.40
2013-9-24,88.2,80.2,76.8,88.2,80.2,76.8,100,100,100,29.97,29.85,15,2,15,0.16
2013-9-25,87.1,80.4,76.3,80.2,66.9,51.8,100,70,32,29.85,29.80,17,5,17,0.08
2013-9-26,95.0,82.9,77.0,83.1,68.5,44.7,94,68,19,29.85,29.77,14,6,17,0.08
2013-9-27,87.8,78.5,74.7,79.3,72.2,54.0,94,83,32,29.94,29.83,13,4,13,0.79
2013-9-28,86.7,81.2,78.1,77.8,63.5,49.3,90,59,32,30.00,29.91,14,6,15,0.28
2013-9-29,88.0,81.3,76.1,77.4,56.8,48.6,90,46,28,30.00,29.91,9,3,11,0.08
2013-9-30,87.1,81.2,74.3,79.1,61.5,50.2,93,55,29,30.03,29.91,11,4,11,0.08
2013-10-1,88.0,82.6,77.9,73.0,57.8,50.4,79,44,29,30.09,29.97,11,4,11,0.08
2013-10-2,87.8,82.4,78.8,58.3,53.1,47.3,47,37,26,30.09,30.00,11,4,11,0.08
2013-10-3,87.8,82.4,78.8,55.7,52.7,49.3,44,36,27,30.09,30.00,10,4,10,0.08
2013-10-4,88.3,83.0,79.5,56.2,52.4,46.7,44,35,25,30.09,30.00,9,4,9,0.08
2013-10-5,89.4,82.8,79.7,76.6,59.8,51.3,87,48,28,30.06,29.97,9,4,12,0.12
2013-10-6,88.7,83.6,78.8,74.0,63.1,53.4,79,51,32,30.00,29.88,11,4,11,0.08
2013-10-7,89.8,81.9,77.9,74.5,66.3,52.5,76,61,30,29.88,29.83,12,3,12,0.00
2013-10-8,95.0,85.2,78.1,82.2,63.7,43.8,94,55,18,29.91,29.83,17,6,17,0.00
2013-10-9,88.5,79.7,75.4,76.5,67.2,50.8,96,71,29,30.03,29.88,17,5,17,0.16
2013-10-10,83.7,75.9,72.9,78.8,68.8,46.3,93,80,30,30.03,29.97,11,3,11,0.00
2013-10-11,86.9,78.8,70.2,77.7,63.9,54.6,92,63,38,30.06,29.94,9,2,9,0.00
2013-10-12,93.6,81.0,72.9,81.3,64.5,43.7,100,62,22,30.06,29.97,11,3,11,0.00
2013-10-13,88.3,79.7,71.4,80.6,64.6,47.3,100,64,26,30.09,30.00,10,2,10,0.00
2013-10-14,83.5,77.6,75.6,81.5,73.3,65.6,100,87,66,30.03,29.97,12,3,12,0.00
2013-10-15,90.1,78.6,72.9,83.5,66.8,48.1,100,74,27,30.00,29.88,11,3,11,0.00
2013-10-16,88.3,79.6,73.9,77.8,65.9,52.7,94,67,30,29.97,29.91,9,2,9,0.00
2013-10-17,86.9,80.1,73.4,79.8,69.0,50.2,94,72,30,30.00,29.91,10,3,10,0.00
2013-10-18,86.2,81.0,75.0,84.4,74.7,68.4,100,83,57,30.00,29.91,12,4,12,0.00
2013-10-19,87.6,82.0,76.1,85.1,77.0,69.4,100,86,57,29.97,29.88,13,4,13,0.00
2013-10-20,91.2,81.8,77.4,88.9,77.9,66.4,100,90,46,29.97,29.85,11,3,11,0.00
2013-10-21,88.2,82.2,76.5,86.6,79.9,72.9,100,93,62,30.00,29.91,8,3,10,0.04
2013-10-22,94.6,83.2,78.3,87.1,76.7,56.7,100,85,30,29.94,29.80,20,3,20,0.63
2013-10-23,85.6,78.1,72.9,80.1,70.9,46.7,100,81,46,30.00,29.80,14,4,14,0.00
2013-10-24,76.5,72.6,69.8,69.5,60.3,49.5,96,66,44,30.18,30.00,14,5,14,0.00
2013-10-25,82.8,73.9,68.4,76.1,63.3,35.6,100,74,32,30.24,30.15,14,4,14,0.00
2013-10-26,83.5,73.7,68.4,65.7,57.1,40.1,84,59,24,30.24,30.12,10,3,10,0.00
2013-10-27,80.4,72.2,66.7,73.1,62.6,48.7,100,75,34,30.15,30.09,11,3,11,0.00
2013-10-28,84.4,75.3,68.7,76.8,64.8,56.0,100,73,40,30.21,30.09,11,3,11,0.00
2013-10-29,84.4,77.5,70.7,79.9,68.1,57.3,100,76,40,30.24,30.15,11,4,11,0.00
2013-10-30,85.3,79.9,77.0,75.1,68.3,57.8,88,69,42,30.27,30.15,14,5,14,0.00
2013-10-31,85.8,80.2,76.5,79.3,71.0,64.6,100,75,52,30.15,30.03,17,6,17,0.00
2013-11-1,92.7,81.9,75.7,83.8,72.3,49.6,100,78,24,30.03,29.88,13,2,13,0.00
2013-11-2,86.9,75.4,69.8,81.5,71.5,63.6,100,89,50,29.97,29.83,17,4,17,0.00
2013-11-3,81.0,73.1,66.0,69.0,52.7,36.5,92,55,24,30.12,29.94,17,6,17,0.00
2013-11-4,80.1,75.5,72.1,74.7,58.2,36.6,100,57,32,30.18,30.09,23,10,23,0.00
2013-11-5,82.9,76.7,73.0,81.0,75.8,63.9,100,97,68,30.18,30.09,23,10,23,0.16
2013-11-6,84.0,77.5,74.3,77.2,73.4,66.5,100,88,60,30.15,30.06,20,4,20,0.00
2013-11-7,84.0,76.1,72.0,83.8,75.7,72.0,100,99,82,30.06,29.97,10,2,10,0.00
2013-11-8,82.0,74.7,70.7,79.3,66.1,47.5,100,79,39,30.12,30.00,18,6,18,0.00
2013-11-9,81.3,76.2,74.1,54.2,49.5,44.9,48,39,29,30.21,30.12,17,7,17,0.00
2013-11-10,85.8,77.4,73.0,69.8,56.2,46.5,89,51,28,30.21,30.12,10,3,10,0.00
2013-11-11,83.8,76.6,72.1,75.3,61.5,50.2,94,64,32,30.18,30.09,8,3,8,0.00
2013-11-12,80.6,74.7,71.6,76.0,67.5,56.2,95,79,58,30.12,30.03,11,2,11,0.00
2013-11-13,71.8,69.0,66.9,56.2,39.5,26.9,58,35,22,30.33,30.06,20,8,20,0.00
2013-11-14,76.3,71.4,67.3,44.1,35.3,27.5,36,27,22,30.36,30.21,17,9,17,0.00
2013-11-15,77.7,74.6,71.2,71.2,54.1,32.6,89,52,24,30.24,30.09,14,5,14,0.00
2013-11-16,81.5,75.6,72.0,73.1,68.3,54.4,95,80,43,30.15,30.06,13,4,13,0.12
2013-11-17,84.7,77.7,72.9,74.8,70.2,56.5,97,81,40,30.12,30.03,14,4,14,0.00
2013-11-18,93.2,78.6,73.2,79.9,68.9,47.5,94,76,22,30.06,29.94,10,2,10,0.00
2013-11-19,82.6,75.7,72.9,72.9,62.7,47.5,94,69,31,29.97,29.88,13,4,13,0.00
2013-11-20,80.1,75.4,71.6,73.9,72.3,69.3,98,90,79,30.15,29.94,17,7,17,1.22
2013-11-21,78.6,76.1,73.4,74.6,72.4,69.2,98,88,78,30.21,30.12,13,7,14,0.31
2013-11-22,82.4,76.9,74.8,73.0,62.6,51.9,90,64,39,30.24,30.15,13,6,13,0.00
2013-11-23,84.2,77.1,71.6,70.5,56.2,47.1,88,51,29,30.15,30.03,9,3,9,0.00
2013-11-24,80.1,71.2,68.0,69.7,57.9,38.6,96,67,32,30.27,30.03,23,7,23,0.04
2013-11-25,73.8,71.0,68.4,68.7,46.1,38.2,89,42,32,30.30,30.12,20,10,20,0.00
2013-11-26,80.2,75.8,72.1,77.1,73.6,66.0,97,93,82,30.12,29.77,20,7,20,0.08
2013-11-27,79.9,71.1,53.4,74.4,62.1,42.7,98,77,34,30.21,29.71,22,7,22,0.00
2013-11-28,73.6,59.7,48.6,66.9,51.7,39.4,100,76,42,30.36,30.21,17,7,17,0.00
2013-11-29,76.8,66.5,61.2,76.5,63.0,53.5,100,90,49,30.39,30.33,18,6,18,0.00
2013-11-30,77.5,70.6,65.5,75.2,68.7,64.8,100,94,68,30.33,30.21,19,6,19,0.20
2013-12-1,72.0,69.0,67.3,72.0,68.2,66.4,100,97,95,30.21,30.00,10,2,10,0.20
2013-12-2,74.3,67.9,62.6,69.0,63.3,44.6,98,87,40,30.00,29.83,10,2,10,0.00
2013-12-3,82.8,69.1,61.2,74.0,59.8,44.1,96,76,33,30.03,29.91,8,1,8,0.00
2013-12-4,82.8,72.3,64.0,73.3,67.1,55.4,96,85,42,30.12,30.00,9,2,9,0.00
2013-12-5,88.3,73.8,65.5,76.0,66.5,50.9,97,81,31,30.24,30.12,10,2,10,0.00
2013-12-6,81.3,74.6,69.6,79.6,69.7,53.8,97,87,40,30.24,30.15,13,2,13,0.00
2013-12-7,88.2,75.3,66.7,79.3,67.2,53.3,95,79,33,30.30,30.18,7,2,7,0.00
2013-12-8,86.7,77.1,74.1,73.2,67.3,52.5,94,75,32,30.27,30.15,13,4,13,0.00
2013-12-9,88.0,75.6,72.1,76.4,68.8,54.4,96,82,34,30.24,30.15,10,2,10,0.00
2013-12-10,94.1,78.3,70.2,81.3,57.6,30.3,90,59,11,30.21,30.09,13,3,13,0.00
2013-12-11,84.9,75.2,69.6,77.1,65.8,53.6,95,75,36,30.27,30.18,12,3,12,0.00
2013-12-12,74.5,68.5,64.4,68.7,48.7,25.9,96,58,19,30.30,30.18,17,7,17,0.00
2013-12-13,77.5,71.1,67.3,49.2,38.4,32.6,44,31,21,30.27,30.15,16,7,16,0.00
2013-12-14,82.6,75.5,72.1,75.5,69.9,48.9,95,84,44,30.15,29.97,17,6,17,0.00
2013-12-15,77.9,72.3,66.6,74.2,62.6,45.0,98,76,39,30.09,29.91,12,4,12,0.59
2013-12-16,77.5,64.7,58.3,60.0,46.9,31.7,84,57,23,30.21,30.09,15,6,15,0.00
2013-12-17,88.5,66.7,59.2,69.4,47.2,32.5,95,56,20,30.24,30.15,13,4,13,0.00
2013-12-18,85.1,65.1,57.6,45.2,30.6,16.8,53,30,11,30.27,30.18,14,4,14,0.00
2013-12-19,84.2,68.4,59.0,65.5,41.5,26.9,76,40,19,30.27,30.18,10,4,10,0.00
2013-12-20,86.4,73.1,62.6,70.4,54.3,43.6,92,56,24,30.21,30.12,13,3,13,0.00
2013-12-21,90.5,76.4,72.0,75.8,70.7,56.6,98,85,33,30.18,30.06,14,4,14,0.00
2013-12-22,87.1,76.8,72.5,76.6,70.7,56.8,98,84,41,30.15,30.09,13,4,13,0.00
2013-12-23,95.7,77.7,71.1,79.8,69.4,49.6,98,80,25,30.18,30.09,14,4,14,0.00
2013-12-24,74.8,68.2,63.1,70.4,52.6,20.4,93,64,17,30.24,30.09,17,5,17,0.00
2013-12-25,71.8,69.3,64.4,44.6,40.7,37.1,46,35,31,30.21,30.15,15,7,15,0.00
2013-12-26,88.0,71.7,64.8,74.4,54.4,39.6,91,59,28,30.21,30.09,12,4,12,0.00
2013-12-27,78.1,71.8,68.4,72.5,68.5,65.8,97,90,69,30.24,30.15,10,4,10,0.00
2013-12-28,78.6,73.3,70.0,72.4,70.9,69.3,98,92,78,30.21,30.03,13,5,13,0.00
2013-12-29,77.7,74.5,72.3,75.2,72.7,70.2,98,94,92,30.03,29.88,13,4,13,0.39
2013-12-30,72.3,67.7,64.2,70.2,60.5,46.1,93,79,51,30.18,29.97,13,3,13,0.00
2013-12-31,73.6,67.1,64.8,70.7,53.7,36.8,100,64,28,30.30,30.15,9,4,11,0.00
2014-1-1,72.1,70.2,68.4,72.2,70.1,68.2,100,100,90,30.24,30.03,12,3,12,0.20
2014-1-2,89.2,75.6,68.5,88.9,69.8,61.9,100,85,44,30.03,29.80,19,4,19,0.00